createdAt,value
2023-09-18T00:04:37.172Z,70.69
2023-09-18T00:09:39.358Z,70.92
2023-09-18T00:14:42.856Z,69.33
2023-09-18T00:19:45.155Z,68.68
2023-09-18T00:24:47.296Z,68.84
2023-09-18T00:29:49.507Z,68.11
2023-09-18T00:34:51.811Z,68.74
2023-09-18T00:39:53.918Z,67.97
2023-09-18T00:44:56.336Z,67.84
2023-09-18T00:49:59.499Z,69.41
2023-09-18T00:55:03.547Z,69.20
2023-09-18T01:00:07.748Z,68.61
2023-09-18T01:05:10.009Z,68.47
2023-09-18T01:10:16.659Z,70.71
2023-09-18T01:15:46.406Z,73.37
2023-09-18T01:20:48.593Z,73.62
2023-09-18T01:25:51.002Z,73.57
2023-09-18T01:30:55.015Z,72.39
2023-09-18T01:36:00.377Z,72.63
2023-09-18T01:41:03.061Z,73.77
2023-09-18T01:46:06.611Z,75.23
2023-09-18T01:51:08.944Z,75.32
2023-09-18T01:56:11.171Z,70.88
2023-09-18T02:01:14.115Z,66.68
2023-09-18T02:06:16.692Z,73.30
2023-09-18T02:11:19.092Z,79.83
2023-09-18T02:16:25.393Z,82.69
2023-09-18T02:21:27.916Z,87.31
2023-09-18T02:26:31.009Z,81.63
2023-09-18T02:31:33.738Z,77.15
2023-09-18T02:36:36.349Z,82.39
2023-09-18T02:41:38.566Z,77.99
2023-09-18T02:46:44.327Z,74.01
2023-09-18T02:51:48.177Z,74.71
2023-09-18T02:56:50.565Z,76.84
2023-09-18T03:01:52.771Z,76.54
2023-09-18T03:06:56.058Z,76.04
2023-09-18T03:11:58.291Z,76.43
2023-09-18T03:17:01.872Z,78.87
2023-09-18T03:22:04.786Z,72.56
2023-09-18T03:27:07.536Z,73.50
2023-09-18T03:32:13.672Z,79.65
2023-09-18T03:37:16.532Z,83.65
2023-09-18T03:42:18.769Z,81.57
2023-09-18T03:47:22.431Z,77.45
2023-09-18T03:52:25.178Z,74.97
2023-09-18T03:57:27.990Z,73.25
2023-09-18T04:02:31.610Z,78.58
2023-09-18T04:07:34.002Z,82.43
2023-09-18T04:12:37.041Z,83.42
2023-09-18T04:17:39.553Z,83.07
2023-09-18T04:22:51.183Z,80.16
2023-09-18T04:27:54.943Z,82.63
2023-09-18T04:32:57.218Z,81.01
2023-09-18T04:38:01.632Z,78.57
2023-09-18T04:43:07.649Z,75.25
2023-09-18T04:48:09.865Z,78.23
2023-09-18T04:53:14.470Z,82.53
2023-09-18T04:58:18.039Z,85.73
2023-09-18T05:03:20.445Z,88.03
2023-09-18T05:08:23.863Z,86.58
2023-09-18T05:13:26.180Z,83.57
2023-09-18T05:18:28.639Z,85.76
2023-09-18T05:23:31.336Z,90.81
2023-09-18T05:28:33.448Z,92.13
2023-09-18T05:33:35.592Z,91.66
2023-09-18T05:38:37.752Z,95.14
2023-09-18T05:43:40.005Z,94.90
2023-09-18T05:48:43.444Z,93.26
2023-09-18T05:53:45.641Z,92.19
2023-09-18T05:58:47.778Z,90.86
2023-09-18T06:03:49.892Z,91.55
2023-09-18T06:08:55.267Z,94.53
2023-09-18T06:13:57.817Z,98.27
2023-09-18T06:19:01.413Z,100.00
2023-09-18T06:24:03.666Z,100.00
2023-09-18T06:29:05.943Z,100.00
2023-09-18T06:34:08.192Z,100.00
2023-09-18T06:39:10.331Z,100.00
2023-09-18T06:44:12.454Z,100.00
2023-09-18T06:49:14.634Z,100.00
2023-09-18T06:54:16.873Z,100.00
2023-09-18T06:59:19.072Z,100.00
2023-09-18T07:04:21.417Z,100.00
2023-09-18T07:09:24.510Z,100.00
2023-09-18T07:14:26.789Z,100.00
2023-09-18T07:19:38.668Z,100.00
2023-09-18T07:24:43.249Z,100.00
2023-09-18T07:29:45.639Z,99.77
2023-09-18T07:34:48.635Z,98.50
2023-09-18T07:39:51.068Z,96.78
2023-09-18T07:44:53.262Z,100.00
2023-09-18T07:49:56.140Z,96.06
2023-09-18T07:54:59.648Z,97.12
2023-09-18T08:00:13.541Z,94.58
2023-09-18T08:05:16.141Z,95.57
2023-09-18T08:10:19.196Z,93.04
2023-09-18T08:15:22.021Z,94.28
2023-09-18T08:20:24.448Z,93.33
2023-09-18T08:25:26.685Z,95.75
2023-09-18T08:30:30.366Z,95.86
2023-09-18T08:35:33.906Z,96.70
2023-09-18T08:40:36.416Z,100.00
2023-09-18T08:46:02.778Z,100.00
2023-09-18T08:51:07.693Z,100.00
2023-09-18T08:56:10.563Z,100.00
2023-09-18T09:01:13.660Z,100.00
2023-09-18T09:06:16.427Z,100.00
2023-09-18T09:11:20.815Z,100.00
2023-09-18T09:16:23.144Z,100.00
2023-09-18T09:21:45.016Z,100.00
2023-09-18T09:27:04.591Z,100.00
2023-09-18T09:32:19.412Z,100.00
2023-09-18T09:37:32.402Z,100.00
2023-09-18T09:42:42.240Z,100.00
2023-09-18T09:47:45.599Z,100.00
2023-09-18T09:52:51.218Z,100.00
2023-09-18T09:57:59.194Z,100.00
2023-09-18T10:03:04.784Z,100.00
2023-09-18T10:08:17.362Z,100.00
2023-09-18T10:13:41.844Z,100.00
2023-09-18T10:19:25.309Z,100.00
2023-09-18T10:24:32.919Z,100.00
2023-09-18T10:29:37.893Z,100.00
2023-09-18T10:34:41.861Z,100.00
2023-09-18T10:39:46.591Z,100.00
2023-09-18T10:44:52.871Z,100.00
2023-09-18T10:49:55.743Z,100.00
2023-09-18T10:54:57.969Z,100.00
2023-09-18T11:00:01.424Z,100.00
2023-09-18T11:05:06.098Z,100.00
2023-09-18T11:10:28.239Z,100.00
2023-09-18T11:15:33.944Z,100.00
2023-09-18T11:20:37.303Z,100.00
2023-09-18T11:25:52.644Z,100.00
2023-09-18T11:31:01.874Z,100.00
2023-09-18T11:36:34.858Z,100.00
2023-09-18T11:41:39.855Z,100.00
2023-09-18T11:46:55.854Z,100.00
2023-09-18T11:52:01.528Z,100.00
2023-09-18T11:57:07.696Z,100.00
2023-09-18T12:02:11.537Z,100.00
2023-09-18T12:07:14.066Z,100.00
2023-09-18T12:12:19.226Z,100.00
2023-09-18T12:17:21.496Z,100.00
2023-09-18T12:22:32.709Z,100.00
2023-09-18T12:27:37.767Z,100.00
2023-09-18T12:32:40.918Z,100.00
2023-09-18T12:37:43.327Z,100.00
2023-09-18T12:42:45.568Z,100.00
2023-09-18T12:47:48.402Z,100.00
2023-09-18T12:52:50.749Z,100.00
2023-09-18T12:57:55.743Z,100.00
2023-09-18T13:02:58.756Z,100.00
2023-09-18T13:08:07.337Z,100.00
2023-09-18T13:13:23.111Z,100.00
2023-09-18T13:18:25.817Z,100.00
2023-09-18T13:23:34.308Z,98.61
2023-09-18T13:28:38.094Z,98.68
2023-09-18T13:33:42.168Z,91.71
2023-09-18T13:38:45.788Z,76.26
2023-09-18T13:43:48.796Z,78.87
2023-09-18T13:48:52.275Z,85.77
2023-09-18T13:53:58.129Z,91.48
2023-09-18T13:59:00.722Z,86.99
2023-09-18T14:04:02.881Z,85.60
2023-09-18T14:09:06.981Z,89.91
2023-09-18T14:14:09.129Z,91.61
2023-09-18T14:19:12.304Z,90.29
2023-09-18T14:24:14.463Z,87.40
2023-09-18T14:29:16.722Z,89.68
2023-09-18T14:34:18.958Z,89.49
2023-09-18T14:39:21.137Z,87.05
2023-09-18T14:44:23.744Z,86.18
2023-09-18T14:49:28.195Z,78.99
2023-09-18T14:54:30.736Z,72.45
2023-09-18T14:59:41.940Z,69.84
2023-09-18T15:04:49.058Z,78.32
2023-09-18T15:09:51.362Z,85.68
2023-09-18T15:14:53.502Z,87.03
2023-09-18T15:19:56.868Z,86.50
2023-09-18T15:25:00.854Z,85.22
2023-09-18T15:30:06.745Z,86.28
2023-09-18T15:35:10.819Z,86.33
2023-09-18T15:40:16.382Z,85.78
2023-09-18T15:45:19.330Z,89.65
2023-09-18T15:50:22.750Z,90.32
2023-09-18T15:55:26.070Z,89.78
2023-09-18T16:00:28.351Z,90.46
2023-09-18T16:05:30.474Z,90.06
2023-09-18T16:10:33.654Z,90.76
2023-09-18T16:15:35.986Z,90.00
2023-09-18T16:20:38.153Z,89.35
2023-09-18T16:25:40.352Z,90.89
2023-09-18T16:30:42.545Z,92.70
2023-09-18T16:35:47.541Z,94.37
2023-09-18T16:40:49.767Z,94.92
2023-09-18T16:45:51.985Z,96.41
2023-09-18T16:50:54.494Z,96.67
2023-09-18T16:55:56.995Z,97.83
2023-09-18T17:00:59.302Z,97.76
2023-09-18T17:06:01.591Z,98.23
2023-09-18T17:11:06.655Z,99.69
2023-09-18T17:16:10.100Z,99.69
2023-09-18T17:21:12.332Z,100.00
2023-09-18T17:26:14.509Z,100.00
2023-09-18T17:31:16.789Z,100.00
2023-09-18T17:36:19.070Z,100.00
2023-09-18T17:41:21.975Z,100.00
2023-09-18T17:46:24.137Z,100.00
2023-09-18T17:51:26.353Z,100.00
2023-09-18T17:56:28.730Z,100.00
2023-09-18T18:01:31.091Z,98.42
2023-09-18T18:06:35.254Z,100.00
2023-09-18T18:11:37.459Z,100.00
2023-09-18T18:16:39.677Z,100.00
2023-09-18T18:21:42.417Z,100.00
2023-09-18T18:26:44.668Z,100.00
2023-09-18T18:31:47.689Z,100.00
2023-09-18T18:36:49.928Z,100.00
2023-09-18T18:41:52.124Z,100.00
2023-09-18T18:46:54.398Z,100.00
2023-09-18T18:51:56.800Z,100.00
2023-09-18T18:56:58.980Z,100.00
2023-09-18T19:02:03.252Z,100.00
2023-09-18T19:07:07.291Z,100.00
2023-09-18T19:12:09.628Z,100.00
2023-09-18T19:17:11.932Z,100.00
2023-09-18T19:22:14.038Z,100.00
2023-09-18T19:27:16.266Z,100.00
2023-09-18T19:32:20.029Z,100.00
2023-09-18T19:37:22.267Z,100.00
2023-09-18T19:42:24.723Z,100.00
2023-09-18T19:47:27.062Z,100.00
2023-09-18T19:52:29.368Z,100.00
2023-09-18T19:57:31.646Z,100.00
2023-09-18T20:02:38.300Z,100.00
2023-09-18T20:07:41.191Z,100.00
2023-09-18T20:12:48.105Z,100.00
2023-09-18T20:17:52.112Z,100.00
2023-09-18T20:22:54.437Z,100.00
2023-09-18T20:27:56.822Z,100.00
2023-09-18T20:32:59.974Z,100.00
2023-09-18T20:38:02.209Z,100.00
2023-09-18T20:43:05.421Z,100.00
2023-09-18T20:48:08.942Z,100.00
2023-09-18T20:53:11.761Z,100.00
2023-09-18T20:58:14.033Z,100.00
2023-09-18T21:03:16.346Z,100.00
2023-09-18T21:08:18.608Z,100.00
2023-09-18T21:13:20.733Z,100.00
2023-09-18T21:18:22.969Z,100.00
2023-09-18T21:23:25.573Z,100.00
2023-09-18T21:28:28.110Z,100.00
2023-09-18T21:33:31.291Z,100.00
2023-09-18T21:38:33.722Z,100.00
2023-09-18T21:43:36.897Z,100.00
2023-09-18T21:48:39.442Z,100.00
2023-09-18T21:53:41.924Z,100.00
2023-09-18T21:58:44.536Z,100.00
2023-09-18T22:03:47.594Z,100.00
2023-09-18T22:08:50.207Z,100.00
2023-09-18T22:13:53.336Z,100.00
2023-09-18T22:18:55.598Z,100.00
2023-09-18T22:23:58.583Z,100.00
2023-09-18T22:29:01.208Z,100.00
2023-09-18T22:34:03.456Z,100.00
2023-09-18T22:39:33.161Z,100.00
2023-09-18T22:45:32.497Z,100.00
2023-09-18T22:51:31.018Z,100.00
2023-09-18T22:56:33.405Z,100.00
2023-09-18T23:01:36.479Z,100.00
2023-09-18T23:06:38.710Z,100.00
2023-09-18T23:11:42.000Z,100.00
2023-09-18T23:16:44.921Z,100.00
2023-09-18T23:21:47.100Z,100.00
2023-09-18T23:26:49.779Z,100.00
2023-09-18T23:31:53.014Z,100.00
2023-09-18T23:36:56.298Z,100.00
2023-09-18T23:42:01.196Z,100.00
2023-09-18T23:47:03.439Z,100.00
2023-09-18T23:52:06.136Z,100.00
2023-09-18T23:57:09.371Z,100.00
